createdAt,value
2019-02-20T00:01:32.239Z,57.70
2019-02-20T00:03:59.980Z,58.20
2019-02-20T00:06:27.829Z,58.00
2019-02-20T00:08:55.549Z,57.70
2019-02-20T00:11:23.215Z,57.60
2019-02-20T00:13:50.875Z,58.10
2019-02-20T00:16:19.542Z,57.40
2019-02-20T00:18:47.214Z,57.20
2019-02-20T00:21:14.910Z,57.30
2019-02-20T00:23:43.012Z,57.30
2019-02-20T00:26:10.745Z,56.80
2019-02-20T00:28:38.476Z,57.30
2019-02-20T00:31:07.327Z,59.90
2019-02-20T00:33:34.972Z,59.20
2019-02-20T00:36:03.600Z,59.70
2019-02-20T00:38:31.281Z,59.50
2019-02-20T00:40:59.044Z,59.50
2019-02-20T00:43:26.689Z,58.70
2019-02-20T00:46:05.483Z,57.50
2019-02-20T00:49:11.177Z,56.90
2019-02-20T00:51:55.049Z,57.60
2019-02-20T00:54:22.690Z,57.90
2019-02-20T00:56:50.354Z,57.50
2019-02-20T00:59:18.288Z,57.80
2019-02-20T01:01:46.512Z,58.50
2019-02-20T01:04:14.152Z,58.40
2019-02-20T01:06:45.197Z,58.30
2019-02-20T01:09:11.529Z,58.40
2019-02-20T01:11:39.197Z,58.80
2019-02-20T01:14:06.834Z,59.50
2019-02-20T01:16:34.913Z,59.80
2019-02-20T01:19:02.549Z,60.00
2019-02-20T01:21:30.325Z,59.30
2019-02-20T01:23:58.023Z,59.40
2019-02-20T01:26:25.678Z,58.60
2019-02-20T01:28:53.283Z,58.90
2019-02-20T01:31:20.901Z,58.30
2019-02-20T01:33:48.626Z,58.70
2019-02-20T01:36:16.414Z,57.90
2019-02-20T01:38:44.099Z,58.00
2019-02-20T01:41:11.786Z,58.10
2019-02-20T01:43:39.484Z,58.50
2019-02-20T01:46:07.156Z,58.80
2019-02-20T01:48:34.838Z,58.60
2019-02-20T01:51:02.491Z,58.00
2019-02-20T01:53:30.165Z,57.90
2019-02-20T01:55:57.841Z,58.10
2019-02-20T01:58:25.529Z,58.10
2019-02-20T02:00:53.187Z,59.00
2019-02-20T02:03:20.870Z,60.20
2019-02-20T02:05:48.538Z,60.70
2019-02-20T02:08:16.212Z,60.50
2019-02-20T02:10:44.017Z,60.80
2019-02-20T02:13:11.721Z,60.50
2019-02-20T02:15:39.405Z,60.50
2019-02-20T02:18:07.093Z,59.90
2019-02-20T02:20:35.159Z,59.70
2019-02-20T02:23:02.919Z,59.60
2019-02-20T02:25:30.715Z,59.10
2019-02-20T02:27:58.398Z,58.90
2019-02-20T02:30:26.097Z,58.30
2019-02-20T02:32:53.997Z,58.20
2019-02-20T02:35:22.747Z,58.30
2019-02-20T02:37:50.436Z,57.70
2019-02-20T02:40:18.134Z,57.70
2019-02-20T02:42:45.812Z,57.10
2019-02-20T02:45:13.482Z,56.50
2019-02-20T02:47:41.147Z,56.20
2019-02-20T02:50:09.045Z,55.80
2019-02-20T02:52:36.704Z,55.60
2019-02-20T02:55:04.409Z,55.70
2019-02-20T02:57:33.094Z,56.00
2019-02-20T03:00:01.429Z,56.60
2019-02-20T03:02:30.858Z,57.50
2019-02-20T03:04:58.669Z,57.20
2019-02-20T03:07:26.361Z,57.50
2019-02-20T03:09:54.104Z,57.10
2019-02-20T03:12:21.731Z,56.60
2019-02-20T03:14:49.446Z,56.60
2019-02-20T03:17:17.157Z,56.60
2019-02-20T03:19:44.904Z,55.90
2019-02-20T03:22:12.634Z,55.60
2019-02-20T03:24:40.458Z,56.50
2019-02-20T03:27:08.110Z,57.40
2019-02-20T03:29:37.573Z,58.20
2019-02-20T03:32:07.157Z,58.20
2019-02-20T03:34:34.840Z,58.20
2019-02-20T03:37:02.640Z,58.00
2019-02-20T03:39:30.323Z,57.60
2019-02-20T03:41:58.129Z,57.50
2019-02-20T03:44:25.929Z,57.60
2019-02-20T03:46:53.708Z,57.50
2019-02-20T03:49:21.356Z,57.10
2019-02-20T03:51:48.985Z,57.50
2019-02-20T03:54:16.725Z,57.40
2019-02-20T03:56:44.400Z,57.50
2019-02-20T03:59:12.090Z,57.50
2019-02-20T04:01:39.803Z,57.60
2019-02-20T04:04:07.460Z,57.50
2019-02-20T04:06:35.146Z,57.30
2019-02-20T04:09:04.304Z,57.20
2019-02-20T04:11:33.177Z,57.10
2019-02-20T04:14:00.877Z,56.60
2019-02-20T04:16:28.578Z,56.20
2019-02-20T04:18:56.212Z,56.10
2019-02-20T04:21:23.969Z,55.80
2019-02-20T04:24:01.621Z,56.20
2019-02-20T04:26:21.220Z,56.80
2019-02-20T04:28:51.254Z,56.70
2019-02-20T04:31:18.993Z,56.40
2019-02-20T04:33:46.661Z,56.30
2019-02-20T04:36:14.349Z,56.80
2019-02-20T04:38:41.993Z,58.00
2019-02-20T04:41:09.675Z,57.30
2019-02-20T04:43:38.464Z,57.50
2019-02-20T04:46:06.275Z,57.30
2019-02-20T04:48:35.033Z,57.60
2019-02-20T04:51:02.686Z,57.40
2019-02-20T04:53:30.361Z,57.30
2019-02-20T04:55:58.020Z,57.30
2019-02-20T04:58:25.792Z,58.00
2019-02-20T05:00:53.502Z,57.50
2019-02-20T05:03:23.137Z,57.30
2019-02-20T05:05:50.774Z,57.30
2019-02-20T05:08:18.436Z,57.20
2019-02-20T05:10:46.108Z,56.40
2019-02-20T05:13:14.656Z,56.60
2019-02-20T05:15:42.294Z,56.80
2019-02-20T05:18:09.853Z,57.30
2019-02-20T05:20:37.502Z,56.90
2019-02-20T05:23:05.316Z,55.20
2019-02-20T05:25:45.449Z,55.50
2019-02-20T05:28:13.244Z,56.00
2019-02-20T05:30:40.897Z,55.80
2019-02-20T05:33:08.565Z,56.00
2019-02-20T05:35:36.460Z,55.60
2019-02-20T05:38:04.083Z,55.50
2019-02-20T05:40:31.725Z,55.50
2019-02-20T05:42:59.429Z,55.50
2019-02-20T05:45:27.116Z,55.50
2019-02-20T05:47:54.796Z,55.30
2019-02-20T05:50:22.450Z,55.40
2019-02-20T05:52:50.154Z,55.20
2019-02-20T05:55:17.940Z,55.50
2019-02-20T05:57:45.660Z,56.00
2019-02-20T06:00:13.469Z,56.60
2019-02-20T06:02:41.303Z,56.20
2019-02-20T06:05:08.990Z,56.20
2019-02-20T06:07:36.670Z,56.20
2019-02-20T06:10:04.669Z,56.20
2019-02-20T06:12:32.325Z,55.80
2019-02-20T06:15:00.346Z,56.20
2019-02-20T06:17:29.362Z,56.20
2019-02-20T06:19:57.061Z,56.40
2019-02-20T06:22:24.863Z,55.90
2019-02-20T06:24:52.533Z,56.00
2019-02-20T06:27:20.220Z,56.10
2019-02-20T06:29:47.879Z,56.80
2019-02-20T06:32:15.565Z,56.30
2019-02-20T06:34:43.303Z,55.50
2019-02-20T06:37:10.925Z,55.20
2019-02-20T06:39:38.577Z,55.60
2019-02-20T06:42:06.294Z,56.80
2019-02-20T06:44:33.959Z,56.00
2019-02-20T06:47:01.641Z,55.90
2019-02-20T06:49:29.345Z,55.90
2019-02-20T06:51:56.985Z,56.30
2019-02-20T06:54:24.639Z,56.50
2019-02-20T06:56:52.426Z,56.60
2019-02-20T06:59:20.096Z,56.60
2019-02-20T07:01:47.744Z,56.90
2019-02-20T07:04:15.444Z,58.30
2019-02-20T07:07:29.025Z,57.60
2019-02-20T07:10:39.913Z,58.20
2019-02-20T07:13:31.157Z,58.00
2019-02-20T07:16:32.121Z,57.80
2019-02-20T07:19:45.017Z,59.10
2019-02-20T07:22:48.498Z,59.10
2019-02-20T07:25:20.733Z,59.40
2019-02-20T07:28:26.045Z,59.70
2019-02-20T07:30:54.754Z,60.00
2019-02-20T07:33:22.417Z,60.00
2019-02-20T07:35:50.100Z,60.30
2019-02-20T07:38:17.742Z,60.00
2019-02-20T07:40:45.469Z,59.60
2019-02-20T07:43:13.141Z,60.10
2019-02-20T07:45:40.777Z,60.40
2019-02-20T07:48:09.590Z,60.80
2019-02-20T07:50:37.229Z,60.80
2019-02-20T07:53:05.017Z,60.70
2019-02-20T07:55:32.688Z,60.60
2019-02-20T07:58:00.814Z,60.50
2019-02-20T08:00:28.446Z,60.50
2019-02-20T08:02:56.180Z,60.50
2019-02-20T08:05:23.858Z,60.50
2019-02-20T08:07:51.610Z,61.40
2019-02-20T08:10:19.295Z,60.30
2019-02-20T08:12:46.933Z,60.90
2019-02-20T08:15:14.592Z,60.10
2019-02-20T08:17:43.326Z,60.50
2019-02-20T08:20:11.458Z,61.20
2019-02-20T08:22:39.243Z,62.10
2019-02-20T08:25:07.381Z,60.80
2019-02-20T08:27:36.228Z,60.90
2019-02-20T08:30:06.402Z,60.20
2019-02-20T08:32:34.159Z,61.30
2019-02-20T08:35:02.049Z,60.60
2019-02-20T08:37:29.792Z,61.00
2019-02-20T08:39:57.448Z,60.50
2019-02-20T08:42:25.100Z,60.80
2019-02-20T08:44:52.803Z,61.10
2019-02-20T08:47:20.452Z,60.70
2019-02-20T08:49:48.173Z,61.10
2019-02-20T08:52:15.857Z,61.70
2019-02-20T08:54:43.656Z,61.20
2019-02-20T08:57:11.569Z,60.40
2019-02-20T08:59:39.222Z,59.30
2019-02-20T09:02:06.861Z,59.20
2019-02-20T09:04:35.609Z,58.20
2019-02-20T09:07:03.294Z,56.80
2019-02-20T09:09:30.968Z,57.00
2019-02-20T09:11:58.613Z,57.80
2019-02-20T09:14:26.297Z,57.40
2019-02-20T09:16:53.944Z,56.60
2019-02-20T09:19:21.613Z,56.60
2019-02-20T09:21:49.347Z,58.10
2019-02-20T09:24:17.028Z,56.80
2019-02-20T09:26:44.768Z,56.60
2019-02-20T09:29:12.451Z,56.60
2019-02-20T09:31:40.110Z,56.10
2019-02-20T09:34:07.774Z,56.00
2019-02-20T09:36:35.480Z,56.20
2019-02-20T09:39:31.539Z,55.00
2019-02-20T09:41:59.368Z,54.70
2019-02-20T09:44:28.054Z,56.20
2019-02-20T09:46:55.754Z,54.50
2019-02-20T09:49:23.474Z,53.40
2019-02-20T09:51:51.120Z,53.30
2019-02-20T09:54:18.859Z,53.70
2019-02-20T09:56:46.862Z,53.20
2019-02-20T09:59:14.512Z,53.60
2019-02-20T10:01:42.161Z,53.50
2019-02-20T10:04:09.829Z,53.10
2019-02-20T10:06:37.489Z,53.50
2019-02-20T10:09:05.154Z,54.20
2019-02-20T10:11:34.376Z,53.50
2019-02-20T10:14:03.481Z,53.50
2019-02-20T10:16:31.426Z,52.40
2019-02-20T10:18:59.073Z,53.90
2019-02-20T10:21:26.725Z,52.50
2019-02-20T10:23:54.365Z,52.60
2019-02-20T10:26:22.060Z,51.40
2019-02-20T10:28:49.831Z,51.30
2019-02-20T10:31:17.515Z,51.00
2019-02-20T10:33:45.282Z,51.10
2019-02-20T10:36:12.987Z,51.10
2019-02-20T10:38:40.657Z,51.00
2019-02-20T10:41:08.286Z,50.60
2019-02-20T10:43:35.953Z,50.40
2019-02-20T10:46:03.630Z,50.20
2019-02-20T10:48:31.294Z,50.10
2019-02-20T10:50:58.970Z,49.70
2019-02-20T10:53:26.625Z,49.90
2019-02-20T10:55:54.355Z,50.60
2019-02-20T10:58:22.355Z,49.10
2019-02-20T11:00:50.038Z,49.30
2019-02-20T11:03:18.070Z,49.50
2019-02-20T11:05:45.801Z,50.20
2019-02-20T11:08:13.549Z,49.50
2019-02-20T11:10:41.218Z,49.10
2019-02-20T11:13:08.869Z,48.10
2019-02-20T11:15:36.713Z,48.20
2019-02-20T11:18:04.475Z,48.10
2019-02-20T11:20:32.092Z,49.80
2019-02-20T11:22:59.802Z,48.30
2019-02-20T11:25:27.777Z,47.60
2019-02-20T11:27:55.471Z,47.30
2019-02-20T11:30:23.136Z,47.20
2019-02-20T11:32:50.801Z,48.50
2019-02-20T11:35:18.420Z,46.20
2019-02-20T11:37:46.070Z,46.20
2019-02-20T11:40:13.812Z,46.30
2019-02-20T11:42:41.499Z,47.40
2019-02-20T11:45:09.426Z,46.30
2019-02-20T11:47:37.105Z,46.30
2019-02-20T11:50:05.143Z,46.60
2019-02-20T11:52:38.278Z,45.90
2019-02-20T11:55:03.217Z,46.00
2019-02-20T11:57:30.985Z,46.40
2019-02-20T11:59:58.779Z,45.10
2019-02-20T12:02:37.205Z,44.80
2019-02-20T12:04:58.785Z,45.20
2019-02-20T12:07:26.580Z,45.20
2019-02-20T12:09:54.520Z,44.40
2019-02-20T12:12:22.500Z,45.30
2019-02-20T12:14:50.155Z,46.40
2019-02-20T12:17:17.807Z,45.90
2019-02-20T12:19:45.572Z,45.00
2019-02-20T12:22:13.365Z,43.30
2019-02-20T12:24:41.040Z,43.90
2019-02-20T12:27:08.702Z,43.70
2019-02-20T12:29:36.410Z,42.10
2019-02-20T12:32:04.080Z,44.30
2019-02-20T12:34:31.838Z,44.20
2019-02-20T12:36:59.513Z,43.10
2019-02-20T12:39:27.790Z,42.90
2019-02-20T12:41:55.566Z,43.30
2019-02-20T12:44:23.262Z,43.20
2019-02-20T12:46:51.843Z,42.50
2019-02-20T12:49:19.563Z,42.20
2019-02-20T12:51:47.255Z,41.50
2019-02-20T12:54:14.991Z,42.00
2019-02-20T12:56:44.240Z,41.70
2019-02-20T12:59:12.105Z,41.90
2019-02-20T13:01:39.836Z,41.80
2019-02-20T13:04:07.547Z,42.30
2019-02-20T13:06:35.298Z,42.00
2019-02-20T13:09:04.322Z,42.10
2019-02-20T13:11:33.956Z,42.20
2019-02-20T13:14:01.922Z,41.70
2019-02-20T13:16:29.858Z,40.70
2019-02-20T13:18:57.563Z,41.00
2019-02-20T13:21:25.295Z,40.70
2019-02-20T13:23:53.031Z,41.10
2019-02-20T13:26:20.731Z,40.70
2019-02-20T13:28:48.415Z,40.10
2019-02-20T13:31:16.096Z,40.80
2019-02-20T13:33:43.800Z,39.80
2019-02-20T13:36:15.342Z,40.40
2019-02-20T13:38:43.035Z,41.00
2019-02-20T13:41:12.522Z,41.20
2019-02-20T13:43:40.526Z,40.30
2019-02-20T13:46:08.210Z,39.80
2019-02-20T13:48:35.899Z,40.30
2019-02-20T13:51:04.634Z,40.30
2019-02-20T13:53:33.655Z,39.40
2019-02-20T13:56:01.462Z,40.40
2019-02-20T13:58:29.458Z,40.30
2019-02-20T14:00:57.152Z,39.90
2019-02-20T14:03:25.070Z,39.50
2019-02-20T14:05:52.880Z,38.40
2019-02-20T14:08:20.626Z,38.30
2019-02-20T14:10:48.309Z,38.00
2019-02-20T14:13:16.561Z,38.10
2019-02-20T14:15:45.671Z,39.10
2019-02-20T14:18:13.454Z,39.80
2019-02-20T14:20:41.247Z,39.70
2019-02-20T14:23:09.011Z,38.60
2019-02-20T14:25:36.875Z,39.20
2019-02-20T14:28:04.616Z,40.30
2019-02-20T14:30:32.298Z,39.50
2019-02-20T14:33:00.374Z,39.50
2019-02-20T14:35:28.174Z,38.60
2019-02-20T14:37:55.951Z,38.60
2019-02-20T14:40:23.646Z,38.70
2019-02-20T14:42:53.253Z,38.60
2019-02-20T14:45:21.102Z,36.30
2019-02-20T14:47:49.774Z,37.10
2019-02-20T14:50:17.843Z,37.50
2019-02-20T14:52:46.690Z,37.30
2019-02-20T14:55:15.518Z,37.10
2019-02-20T14:57:43.511Z,37.20
2019-02-20T15:00:11.851Z,37.50
2019-02-20T15:02:40.023Z,38.20
2019-02-20T15:05:07.782Z,38.10
2019-02-20T15:07:35.901Z,38.10
2019-02-20T15:10:04.206Z,37.90
2019-02-20T15:12:32.283Z,38.10
2019-02-20T15:14:59.995Z,37.20
2019-02-20T15:17:28.557Z,37.90
2019-02-20T15:19:56.235Z,37.90
2019-02-20T15:22:24.089Z,37.90
2019-02-20T15:24:52.635Z,37.80
2019-02-20T15:27:28.548Z,37.70
2019-02-20T15:29:50.103Z,38.60
2019-02-20T15:32:17.874Z,38.70
2019-02-20T15:34:45.674Z,39.00
2019-02-20T15:37:13.418Z,38.90
2019-02-20T15:39:41.156Z,39.20
2019-02-20T15:42:09.193Z,39.60
2019-02-20T15:44:36.886Z,39.40
2019-02-20T15:47:04.634Z,39.40
2019-02-20T15:49:32.322Z,39.80
2019-02-20T15:52:00.158Z,40.30
2019-02-20T15:54:28.005Z,40.00
2019-02-20T15:56:55.740Z,40.30
2019-02-20T15:59:23.620Z,41.70
2019-02-20T16:01:51.315Z,40.90
2019-02-20T16:04:18.997Z,41.10
2019-02-20T16:06:46.672Z,40.90
2019-02-20T16:09:14.382Z,41.20
2019-02-20T16:11:42.265Z,41.40
2019-02-20T16:14:10.075Z,41.30
2019-02-20T16:16:37.762Z,41.10
2019-02-20T16:19:05.824Z,41.40
2019-02-20T16:21:33.675Z,41.50
2019-02-20T16:24:01.529Z,41.80
2019-02-20T16:26:29.291Z,41.80
2019-02-20T16:28:57.014Z,42.40
2019-02-20T16:31:24.763Z,42.20
2019-02-20T16:33:52.643Z,42.60
2019-02-20T16:36:20.788Z,42.50
2019-02-20T16:38:48.506Z,43.10
2019-02-20T16:41:17.224Z,43.20
2019-02-20T16:43:44.933Z,43.20
2019-02-20T16:46:12.709Z,43.40
2019-02-20T16:48:40.436Z,44.10
2019-02-20T16:51:08.127Z,45.30
2019-02-20T16:53:36.294Z,45.70
2019-02-20T16:56:04.110Z,46.00
2019-02-20T16:58:32.039Z,45.80
2019-02-20T17:00:59.741Z,45.70
2019-02-20T17:03:27.791Z,46.60
2019-02-20T17:05:55.465Z,46.00
2019-02-20T17:08:23.407Z,46.00
2019-02-20T17:10:51.098Z,46.00
2019-02-20T17:13:18.893Z,46.00
2019-02-20T17:15:46.597Z,46.20
2019-02-20T17:18:14.334Z,46.30
2019-02-20T17:20:41.996Z,46.20
2019-02-20T17:23:09.743Z,45.90
2019-02-20T17:25:37.402Z,46.30
2019-02-20T17:28:05.975Z,46.80
2019-02-20T17:30:33.955Z,46.60
2019-02-20T17:33:01.706Z,46.80
2019-02-20T17:35:29.665Z,47.10
2019-02-20T17:37:57.370Z,47.50
2019-02-20T17:40:25.002Z,47.50
2019-02-20T17:42:52.753Z,47.70
2019-02-20T17:45:20.505Z,47.80
2019-02-20T17:47:48.313Z,48.00
2019-02-20T17:50:16.111Z,48.10
2019-02-20T17:52:43.925Z,48.20
2019-02-20T17:55:11.622Z,48.30
2019-02-20T17:57:39.354Z,48.50
2019-02-20T18:00:08.873Z,48.40
2019-02-20T18:02:38.463Z,48.10
2019-02-20T18:05:06.306Z,47.80
2019-02-20T18:07:34.001Z,47.80
2019-02-20T18:10:01.741Z,48.50
2019-02-20T18:12:29.523Z,48.60
2019-02-20T18:14:57.218Z,49.00
2019-02-20T18:17:24.876Z,49.00
2019-02-20T18:19:52.636Z,49.10
2019-02-20T18:22:20.330Z,49.20
2019-02-20T18:24:49.064Z,49.40
2019-02-20T18:27:16.736Z,49.40
2019-02-20T18:29:44.544Z,49.30
2019-02-20T18:32:12.248Z,49.20
2019-02-20T18:34:40.212Z,49.20
2019-02-20T18:37:07.871Z,49.10
2019-02-20T18:39:35.697Z,49.50
2019-02-20T18:42:03.551Z,49.50
2019-02-20T18:44:31.250Z,49.70
2019-02-20T18:46:58.918Z,49.70
2019-02-20T18:49:26.730Z,49.40
2019-02-20T18:51:54.501Z,49.40
2019-02-20T18:54:22.325Z,49.00
2019-02-20T18:56:50.041Z,49.50
2019-02-20T18:59:17.803Z,49.60
2019-02-20T19:01:45.523Z,49.90
2019-02-20T19:04:13.240Z,50.30
2019-02-20T19:06:41.122Z,50.50
2019-02-20T19:09:13.046Z,50.50
2019-02-20T19:12:15.657Z,50.30
2019-02-20T19:15:19.216Z,50.40
2019-02-20T19:18:28.049Z,50.60
2019-02-20T19:21:20.162Z,50.90
2019-02-20T19:24:54.193Z,51.10
2019-02-20T19:28:10.094Z,50.90
2019-02-20T19:31:16.764Z,50.90
2019-02-20T19:34:12.257Z,50.80
2019-02-20T19:37:23.468Z,53.00
2019-02-20T19:40:09.653Z,53.60
2019-02-20T19:42:47.902Z,53.10
2019-02-20T19:45:29.885Z,53.50
2019-02-20T19:48:16.893Z,54.10
2019-02-20T19:51:06.637Z,53.50
2019-02-20T19:54:11.347Z,53.60
2019-02-20T19:57:07.225Z,54.00
2019-02-20T20:00:00.768Z,54.60
2019-02-20T20:03:09.694Z,54.60
2019-02-20T20:06:21.274Z,54.70
2019-02-20T20:09:16.524Z,54.50
2019-02-20T20:12:24.678Z,54.20
2019-02-20T20:15:25.429Z,54.10
2019-02-20T20:18:29.951Z,53.90
2019-02-20T20:21:30.280Z,53.90
2019-02-20T20:24:30.624Z,54.00
2019-02-20T20:27:38.349Z,54.00
2019-02-20T20:30:53.503Z,53.70
2019-02-20T20:33:58.288Z,53.50
2019-02-20T20:36:54.678Z,52.60
2019-02-20T20:39:56.476Z,52.50
2019-02-20T20:43:11.075Z,52.60
2019-02-20T20:46:16.217Z,52.70
2019-02-20T20:49:06.094Z,53.30
2019-02-20T20:52:16.033Z,53.20
2019-02-20T20:55:36.402Z,53.40
2019-02-20T20:58:39.845Z,53.30
2019-02-20T21:01:42.092Z,54.30
2019-02-20T21:04:51.745Z,54.90
2019-02-20T21:07:44.296Z,54.50
2019-02-20T21:10:57.667Z,54.80
2019-02-20T21:14:01.838Z,54.50
2019-02-20T21:16:56.272Z,54.30
2019-02-20T21:19:48.169Z,54.30
2019-02-20T21:23:05.934Z,54.20
2019-02-20T21:26:21.139Z,54.50
2019-02-20T21:29:28.544Z,54.50
2019-02-20T21:32:26.631Z,54.20
2019-02-20T21:35:21.885Z,54.40
2019-02-20T21:38:29.692Z,53.90
2019-02-20T21:41:24.136Z,53.80
2019-02-20T21:44:29.769Z,53.80
2019-02-20T21:47:37.941Z,53.70
2019-02-20T21:50:39.860Z,53.70
2019-02-20T21:53:19.629Z,53.70
2019-02-20T21:56:35.793Z,53.60
2019-02-20T21:59:42.645Z,52.70
2019-02-20T22:02:51.385Z,53.40
2019-02-20T22:06:12.618Z,54.40
2019-02-20T22:09:14.918Z,54.80
2019-02-20T22:12:10.410Z,55.10
2019-02-20T22:15:04.218Z,55.60
2019-02-20T22:17:53.396Z,55.00
2019-02-20T22:20:58.084Z,54.70
2019-02-20T22:23:55.119Z,54.10
2019-02-20T22:27:17.020Z,54.60
2019-02-20T22:30:04.482Z,54.00
2019-02-20T22:33:06.198Z,54.20
2019-02-20T22:36:03.311Z,53.50
2019-02-20T22:39:03.271Z,54.00
2019-02-20T22:41:52.275Z,53.50
2019-02-20T22:44:52.000Z,53.40
2019-02-20T22:48:08.520Z,53.80
2019-02-20T22:51:01.639Z,53.90
2019-02-20T22:53:47.716Z,53.50
2019-02-20T22:57:07.999Z,52.80
2019-02-20T23:00:08.798Z,52.90
2019-02-20T23:03:04.172Z,53.30
2019-02-20T23:06:13.995Z,53.20
2019-02-20T23:09:20.705Z,53.80
2019-02-20T23:12:24.067Z,53.90
2019-02-20T23:14:57.632Z,54.00
2019-02-20T23:17:27.089Z,54.10
2019-02-20T23:19:57.034Z,53.30
2019-02-20T23:22:25.036Z,52.50
2019-02-20T23:24:52.694Z,53.30
2019-02-20T23:27:20.352Z,53.30
2019-02-20T23:29:48.141Z,54.30
2019-02-20T23:32:17.822Z,54.10
2019-02-20T23:34:45.516Z,54.50
2019-02-20T23:37:14.271Z,54.20
2019-02-20T23:39:41.935Z,54.50
2019-02-20T23:42:12.405Z,54.20
2019-02-20T23:44:40.121Z,54.50
2019-02-20T23:47:07.774Z,54.50
2019-02-20T23:49:35.456Z,54.40
2019-02-20T23:52:04.877Z,54.40
2019-02-20T23:54:32.546Z,54.40
2019-02-20T23:57:00.176Z,54.60
2019-02-20T23:59:28.078Z,54.00
